createdAt,value
2019-01-16T00:02:35.863Z,58.0
2019-01-16T00:19:24.019Z,58.0
2019-01-16T00:36:12.234Z,58.0
2019-01-16T00:53:00.365Z,57.6
2019-01-16T01:09:48.488Z,57.6
2019-01-16T01:26:35.959Z,57.6
2019-01-16T01:43:23.412Z,57.2
2019-01-16T02:00:11.931Z,57.2
2019-01-16T02:16:58.151Z,57.2
2019-01-16T02:33:45.310Z,57.2
2019-01-16T02:50:32.570Z,57.2
2019-01-16T03:07:19.665Z,56.8
2019-01-16T03:24:06.709Z,56.8
2019-01-16T03:40:53.779Z,56.8
2019-01-16T03:57:40.839Z,56.8
2019-01-16T04:14:27.836Z,56.8
2019-01-16T04:31:14.724Z,56.8
2019-01-16T04:48:01.690Z,56.8
2019-01-16T05:04:48.443Z,56.4
2019-01-16T05:21:35.233Z,56.4
2019-01-16T05:38:22.125Z,56.4
2019-01-16T05:55:08.928Z,56.4
2019-01-16T06:11:55.721Z,56.4
2019-01-16T06:28:42.429Z,55.6
2019-01-16T06:45:29.428Z,55.2
2019-01-16T07:02:16.291Z,54.8
2019-01-16T07:19:03.156Z,54.8
2019-01-16T07:35:50.002Z,55.2
2019-01-16T07:52:37.831Z,55.2
2019-01-16T08:09:23.912Z,56.0
2019-01-16T08:26:10.844Z,56.8
2019-01-16T08:42:58.224Z,56.8
2019-01-16T08:59:45.300Z,56.8
2019-01-16T09:16:32.119Z,56.8
2019-01-16T09:33:19.220Z,56.8
2019-01-16T09:50:06.630Z,56.8
2019-01-16T10:06:54.404Z,56.8
2019-01-16T10:23:41.960Z,56.8
2019-01-16T10:40:29.425Z,56.8
2019-01-16T10:57:17.229Z,56.8
2019-01-16T11:14:05.604Z,56.8
2019-01-16T11:30:52.503Z,56.8
2019-01-16T11:47:40.185Z,56.8
2019-01-16T12:04:27.833Z,56.8
2019-01-16T12:21:15.423Z,56.4
2019-01-16T12:38:03.201Z,56.4
2019-01-16T12:54:50.814Z,56.4
2019-01-16T13:11:38.528Z,56.4
2019-01-16T13:28:26.207Z,56.4
2019-01-16T13:45:13.827Z,56.4
2019-01-16T14:02:01.463Z,56.4
2019-01-16T14:18:49.213Z,56.4
2019-01-16T14:35:37.011Z,56.4
2019-01-16T14:52:24.696Z,56.0
2019-01-16T15:09:12.284Z,56.0
2019-01-16T15:26:00.021Z,56.0
2019-01-16T15:42:47.709Z,56.0
2019-01-16T15:59:35.514Z,56.0
2019-01-16T16:16:23.348Z,56.0
2019-01-16T16:33:11.158Z,56.0
2019-01-16T16:49:59.128Z,56.0
2019-01-16T17:06:46.708Z,56.4
2019-01-16T17:23:34.578Z,56.4
2019-01-16T17:40:22.244Z,55.6
2019-01-16T17:57:10.153Z,55.6
2019-01-16T18:13:57.904Z,56.4
2019-01-16T18:30:45.772Z,57.2
2019-01-16T18:47:33.776Z,57.6
2019-01-16T19:04:21.694Z,57.6
2019-01-16T19:21:09.616Z,58.0
2019-01-16T19:37:57.829Z,58.0
2019-01-16T19:54:45.543Z,58.0
2019-01-16T20:11:33.415Z,57.6
2019-01-16T20:28:21.345Z,58.8
2019-01-16T20:45:09.301Z,58.8
2019-01-16T21:01:56.948Z,59.2
2019-01-16T21:18:44.395Z,59.2
2019-01-16T21:35:31.869Z,59.2
2019-01-16T21:52:19.344Z,59.2
2019-01-16T22:09:06.893Z,59.2
2019-01-16T22:25:54.206Z,60.0
2019-01-16T22:42:41.831Z,60.0
2019-01-16T22:59:29.513Z,59.6
2019-01-16T23:16:17.143Z,59.6
2019-01-16T23:33:04.928Z,58.8
2019-01-16T23:49:52.379Z,58.8
